weather.gov     
National Weather Service

Terminal Aerodrome Forecast
NWS Homepage
This page is being discontinued on March 12, 2014.
The same data is available at this site. Please update your bookmarks.
Thank you, and we apologize for the inconvenience.
Please send an email to SR-SRH.Webmaster@noaa.gov with any concerns.


Current Version
Previous Version:    01  02  03  04  05  06  07  08  09  10  11  12  13  14  15  16  17  18  19  
[Printable]
836
FTUS46 KHNX 201136
TAFMCE
TAF
KMCE 201136Z 2012/2112 34006KT P6SM SKC
     FM202200 32010KT P6SM BKN100 OVC250
     FM210600 33009KT P6SM OVC050=


836
FTUS46 KHNX 201136
TAFMCE
TAF
KMCE 201136Z 2012/2112 34006KT P6SM SKC
     FM202200 32010KT P6SM BKN100 OVC250
     FM210600 33009KT P6SM OVC050=




U.S. Dept. of Commerce
NOAA National Weather Service
1325 East West Highway
Silver Spring, MD 20910
E-mail: w-nws.webmaster@noaa.gov
Page last modified: May 16, 2007
NATIONAL WEATHER SERVICE: for Safety, for Work, for Fun - FOR LIFE